sensor_id;sensor_type;location;lat;lon;timestamp;temperature;humidity
22167;DHT22;11249;52.468;13.776;2022-11-20T00:01:37;0.30;99.90
22167;DHT22;11249;52.468;13.776;2022-11-20T00:04:04;0.40;99.90
22167;DHT22;11249;52.468;13.776;2022-11-20T00:06:38;0.30;99.90
22167;DHT22;11249;52.468;13.776;2022-11-20T00:09:11;0.30;99.90
22167;DHT22;11249;52.468;13.776;2022-11-20T00:11:37;0.30;99.90
22167;DHT22;11249;52.468;13.776;2022-11-20T00:14:11;0.40;99.90
22167;DHT22;11249;52.468;13.776;2022-11-20T00:16:37;0.30;99.90
22167;DHT22;11249;52.468;13.776;2022-11-20T00:19:10;0.30;99.90
22167;DHT22;11249;52.468;13.776;2022-11-20T00:21:37;0.30;99.90
22167;DHT22;11249;52.468;13.776;2022-11-20T00:24:10;0.20;99.90
22167;DHT22;11249;52.468;13.776;2022-11-20T00:26:37;0.30;99.90
22167;DHT22;11249;52.468;13.776;2022-11-20T00:29:11;0.30;99.90
22167;DHT22;11249;52.468;13.776;2022-11-20T00:31:44;0.20;99.90
22167;DHT22;11249;52.468;13.776;2022-11-20T00:34:24;0.30;99.90
22167;DHT22;11249;52.468;13.776;2022-11-20T00:36:50;0.20;99.90
22167;DHT22;11249;52.468;13.776;2022-11-20T00:39:23;0.20;99.90
22167;DHT22;11249;52.468;13.776;2022-11-20T00:41:50;0.20;99.90
22167;DHT22;11249;52.468;13.776;2022-11-20T00:44:23;0.30;99.90
22167;DHT22;11249;52.468;13.776;2022-11-20T00:46:50;0.20;99.90
22167;DHT22;11249;52.468;13.776;2022-11-20T00:49:23;0.20;99.90
22167;DHT22;11249;52.468;13.776;2022-11-20T00:51:50;0.20;99.90
22167;DHT22;11249;52.468;13.776;2022-11-20T00:54:23;0.30;99.90
22167;DHT22;11249;52.468;13.776;2022-11-20T00:56:53;0.30;99.90
22167;DHT22;11249;52.468;13.776;2022-11-20T00:59:25;0.20;99.90
22167;DHT22;11249;52.468;13.776;2022-11-20T01:01:52;0.20;99.90
22167;DHT22;11249;52.468;13.776;2022-11-20T01:04:25;0.30;99.90
22167;DHT22;11249;52.468;13.776;2022-11-20T01:06:52;0.30;99.90
22167;DHT22;11249;52.468;13.776;2022-11-20T01:09:25;0.30;99.90
22167;DHT22;11249;52.468;13.776;2022-11-20T01:11:52;0.30;99.90
22167;DHT22;11249;52.468;13.776;2022-11-20T01:14:25;0.30;99.90
22167;DHT22;11249;52.468;13.776;2022-11-20T01:16:52;0.30;99.90
22167;DHT22;11249;52.468;13.776;2022-11-20T01:19:25;0.30;99.90
22167;DHT22;11249;52.468;13.776;2022-11-20T01:21:53;0.30;99.90
22167;DHT22;11249;52.468;13.776;2022-11-20T01:24:26;0.30;99.90
22167;DHT22;11249;52.468;13.776;2022-11-20T01:26:53;0.40;99.90
22167;DHT22;11249;52.468;13.776;2022-11-20T01:29:33;0.40;99.90
22167;DHT22;11249;52.468;13.776;2022-11-20T01:32:13;0.40;99.90
22167;DHT22;11249;52.468;13.776;2022-11-20T01:34:46;0.40;99.90
22167;DHT22;11249;52.468;13.776;2022-11-20T01:37:13;0.30;99.90
22167;DHT22;11249;52.468;13.776;2022-11-20T01:39:46;0.40;99.90
22167;DHT22;11249;52.468;13.776;2022-11-20T01:42:13;0.30;99.90
22167;DHT22;11249;52.468;13.776;2022-11-20T01:45:50;0.30;99.90
22167;DHT22;11249;52.468;13.776;2022-11-20T01:48:37;0.30;99.90
22167;DHT22;11249;52.468;13.776;2022-11-20T01:51:10;0.20;99.90
22167;DHT22;11249;52.468;13.776;2022-11-20T01:53:46;0.20;99.90
22167;DHT22;11249;52.468;13.776;2022-11-20T01:56:19;0.20;99.90
22167;DHT22;11249;52.468;13.776;2022-11-20T01:58:51;0.20;99.90
22167;DHT22;11249;52.468;13.776;2022-11-20T02:01:24;0.20;99.90
22167;DHT22;11249;52.468;13.776;2022-11-20T02:03:51;0.30;99.90
22167;DHT22;11249;52.468;13.776;2022-11-20T02:06:28;0.20;99.90
22167;DHT22;11249;52.468;13.776;2022-11-20T02:08:56;0.30;99.90
22167;DHT22;11249;52.468;13.776;2022-11-20T02:11:30;0.30;99.90
22167;DHT22;11249;52.468;13.776;2022-11-20T02:13:58;0.30;99.90
22167;DHT22;11249;52.468;13.776;2022-11-20T02:16:35;0.30;99.90
22167;DHT22;11249;52.468;13.776;2022-11-20T02:19:07;0.30;99.90
22167;DHT22;11249;52.468;13.776;2022-11-20T02:24:43;0.30;99.90
22167;DHT22;11249;52.468;13.776;2022-11-20T02:27:18;0.20;99.90
22167;DHT22;11249;52.468;13.776;2022-11-20T02:29:49;0.30;99.90
22167;DHT22;11249;52.468;13.776;2022-11-20T02:32:41;0.20;99.90
22167;DHT22;11249;52.468;13.776;2022-11-20T02:37:54;0.20;99.90
22167;DHT22;11249;52.468;13.776;2022-11-20T02:40:22;0.20;99.90
22167;DHT22;11249;52.468;13.776;2022-11-20T02:42:56;0.20;99.90
22167;DHT22;11249;52.468;13.776;2022-11-20T02:45:24;0.20;99.90
22167;DHT22;11249;52.468;13.776;2022-11-20T02:47:57;0.20;99.90
22167;DHT22;11249;52.468;13.776;2022-11-20T02:50:24;0.20;99.90
22167;DHT22;11249;52.468;13.776;2022-11-20T02:52:57;0.20;99.90
22167;DHT22;11249;52.468;13.776;2022-11-20T02:55:24;0.20;99.90
22167;DHT22;11249;52.468;13.776;2022-11-20T02:57:57;0.20;99.90
22167;DHT22;11249;52.468;13.776;2022-11-20T03:00:24;0.20;99.90
22167;DHT22;11249;52.468;13.776;2022-11-20T03:02:57;0.20;99.90
22167;DHT22;11249;52.468;13.776;2022-11-20T03:05:24;0.20;99.90
22167;DHT22;11249;52.468;13.776;2022-11-20T03:07:57;0.20;99.90
22167;DHT22;11249;52.468;13.776;2022-11-20T03:10:24;0.20;99.90
22167;DHT22;11249;52.468;13.776;2022-11-20T03:12:57;0.20;99.90
22167;DHT22;11249;52.468;13.776;2022-11-20T03:15:24;0.20;99.90
22167;DHT22;11249;52.468;13.776;2022-11-20T03:17:57;0.20;99.90
22167;DHT22;11249;52.468;13.776;2022-11-20T03:20:24;0.20;99.90
22167;DHT22;11249;52.468;13.776;2022-11-20T03:22:57;0.20;99.90
22167;DHT22;11249;52.468;13.776;2022-11-20T03:25:24;0.20;99.90
22167;DHT22;11249;52.468;13.776;2022-11-20T03:27:57;0.20;99.90
22167;DHT22;11249;52.468;13.776;2022-11-20T03:30:37;0.20;99.90
22167;DHT22;11249;52.468;13.776;2022-11-20T03:33:04;0.20;99.90
22167;DHT22;11249;52.468;13.776;2022-11-20T03:35:37;0.20;99.90
22167;DHT22;11249;52.468;13.776;2022-11-20T03:38:04;0.20;99.90
22167;DHT22;11249;52.468;13.776;2022-11-20T03:40:37;0.10;99.90
22167;DHT22;11249;52.468;13.776;2022-11-20T03:43:10;0.20;99.90
22167;DHT22;11249;52.468;13.776;2022-11-20T03:45:43;0.20;99.90
22167;DHT22;11249;52.468;13.776;2022-11-20T03:48:10;0.20;99.90
22167;DHT22;11249;52.468;13.776;2022-11-20T03:50:43;0.10;99.90
22167;DHT22;11249;52.468;13.776;2022-11-20T03:53:10;0.10;99.90
22167;DHT22;11249;52.468;13.776;2022-11-20T03:55:43;0.10;99.90
22167;DHT22;11249;52.468;13.776;2022-11-20T03:58:10;0.10;99.90
22167;DHT22;11249;52.468;13.776;2022-11-20T04:00:43;0.10;99.90
22167;DHT22;11249;52.468;13.776;2022-11-20T04:03:10;0.10;99.90
22167;DHT22;11249;52.468;13.776;2022-11-20T04:05:43;0.00;99.90
22167;DHT22;11249;52.468;13.776;2022-11-20T04:08:16;0.00;99.90
22167;DHT22;11249;52.468;13.776;2022-11-20T04:10:43;0.00;99.90
22167;DHT22;11249;52.468;13.776;2022-11-20T04:13:16;0.00;99.90
22167;DHT22;11249;52.468;13.776;2022-11-20T04:15:49;0.00;99.90
22167;DHT22;11249;52.468;13.776;2022-11-20T04:18:22;0.00;99.90
22167;DHT22;11249;52.468;13.776;2022-11-20T04:20:57;-0.10;99.90
22167;DHT22;11249;52.468;13.776;2022-11-20T04:23:31;0.00;99.90
22167;DHT22;11249;52.468;13.776;2022-11-20T04:26:10;-0.10;99.90
22167;DHT22;11249;52.468;13.776;2022-11-20T04:28:44;-0.10;99.90
22167;DHT22;11249;52.468;13.776;2022-11-20T04:31:19;-0.10;99.90
22167;DHT22;11249;52.468;13.776;2022-11-20T04:33:52;-0.10;99.90
22167;DHT22;11249;52.468;13.776;2022-11-20T04:36:27;-0.20;99.90
22167;DHT22;11249;52.468;13.776;2022-11-20T04:38:55;-0.20;99.90
22167;DHT22;11249;52.468;13.776;2022-11-20T04:41:32;-0.20;99.90
22167;DHT22;11249;52.468;13.776;2022-11-20T04:44:01;-0.20;99.90
22167;DHT22;11249;52.468;13.776;2022-11-20T04:46:41;-0.20;99.90
22167;DHT22;11249;52.468;13.776;2022-11-20T04:49:08;-0.20;99.90
22167;DHT22;11249;52.468;13.776;2022-11-20T04:51:41;-0.20;99.90
22167;DHT22;11249;52.468;13.776;2022-11-20T04:54:10;-0.20;99.90
22167;DHT22;11249;52.468;13.776;2022-11-20T04:56:44;-0.20;99.90
22167;DHT22;11249;52.468;13.776;2022-11-20T04:59:11;-0.20;99.90
22167;DHT22;11249;52.468;13.776;2022-11-20T05:01:45;-0.20;99.90
22167;DHT22;11249;52.468;13.776;2022-11-20T05:04:12;-0.20;99.90
22167;DHT22;11249;52.468;13.776;2022-11-20T05:06:45;-0.20;99.90
22167;DHT22;11249;52.468;13.776;2022-11-20T05:09:12;-0.30;99.90
22167;DHT22;11249;52.468;13.776;2022-11-20T05:11:46;-0.30;99.90
22167;DHT22;11249;52.468;13.776;2022-11-20T05:14:17;-0.30;99.90
22167;DHT22;11249;52.468;13.776;2022-11-20T05:16:49;-0.30;99.90
22167;DHT22;11249;52.468;13.776;2022-11-20T05:19:16;-0.30;99.90
22167;DHT22;11249;52.468;13.776;2022-11-20T05:21:49;-0.40;99.90
22167;DHT22;11249;52.468;13.776;2022-11-20T05:24:16;-0.40;99.90
22167;DHT22;11249;52.468;13.776;2022-11-20T05:26:49;-0.40;99.90
22167;DHT22;11249;52.468;13.776;2022-11-20T05:29:16;-0.40;99.90
22167;DHT22;11249;52.468;13.776;2022-11-20T05:31:56;-0.40;99.90
22167;DHT22;11249;52.468;13.776;2022-11-20T05:34:23;-0.40;99.90
22167;DHT22;11249;52.468;13.776;2022-11-20T05:36:56;-0.30;99.90
22167;DHT22;11249;52.468;13.776;2022-11-20T05:39:23;-0.30;99.90
22167;DHT22;11249;52.468;13.776;2022-11-20T05:41:56;-0.30;99.90
22167;DHT22;11249;52.468;13.776;2022-11-20T05:44:41;-0.30;99.90
22167;DHT22;11249;52.468;13.776;2022-11-20T05:47:14;-0.30;99.90
22167;DHT22;11249;52.468;13.776;2022-11-20T05:49:41;-0.30;99.90
22167;DHT22;11249;52.468;13.776;2022-11-20T05:52:14;-0.30;99.90
22167;DHT22;11249;52.468;13.776;2022-11-20T05:54:41;-0.30;99.90
22167;DHT22;11249;52.468;13.776;2022-11-20T05:57:14;-0.30;99.90
22167;DHT22;11249;52.468;13.776;2022-11-20T05:59:41;-0.30;99.90
22167;DHT22;11249;52.468;13.776;2022-11-20T06:02:14;-0.20;99.90
22167;DHT22;11249;52.468;13.776;2022-11-20T06:04:41;-0.20;99.90
22167;DHT22;11249;52.468;13.776;2022-11-20T06:07:15;-0.20;99.90
22167;DHT22;11249;52.468;13.776;2022-11-20T06:09:42;-0.10;99.90
22167;DHT22;11249;52.468;13.776;2022-11-20T06:12:14;-0.20;99.90
22167;DHT22;11249;52.468;13.776;2022-11-20T06:14:41;-0.20;99.90
22167;DHT22;11249;52.468;13.776;2022-11-20T06:17:14;-0.20;99.90
22167;DHT22;11249;52.468;13.776;2022-11-20T06:19:47;-0.20;99.90
22167;DHT22;11249;52.468;13.776;2022-11-20T06:22:14;-0.20;99.90
22167;DHT22;11249;52.468;13.776;2022-11-20T06:24:47;-0.10;99.90
22167;DHT22;11249;52.468;13.776;2022-11-20T06:27:14;-0.20;99.90
22167;DHT22;11249;52.468;13.776;2022-11-20T06:29:54;-0.10;99.90
22167;DHT22;11249;52.468;13.776;2022-11-20T06:32:34;-0.10;99.90
22167;DHT22;11249;52.468;13.776;2022-11-20T06:35:01;-0.10;99.90
22167;DHT22;11249;52.468;13.776;2022-11-20T06:37:34;-0.10;99.90
22167;DHT22;11249;52.468;13.776;2022-11-20T06:40:01;-0.10;99.90
22167;DHT22;11249;52.468;13.776;2022-11-20T06:42:41;-0.10;99.90
22167;DHT22;11249;52.468;13.776;2022-11-20T06:45:08;-0.10;99.90
22167;DHT22;11249;52.468;13.776;2022-11-20T06:47:41;-0.10;99.90
22167;DHT22;11249;52.468;13.776;2022-11-20T06:50:14;0.00;99.90
22167;DHT22;11249;52.468;13.776;2022-11-20T06:52:41;-0.10;99.90
22167;DHT22;11249;52.468;13.776;2022-11-20T06:55:14;0.00;99.90
22167;DHT22;11249;52.468;13.776;2022-11-20T06:57:41;0.00;99.90
22167;DHT22;11249;52.468;13.776;2022-11-20T07:00:21;0.00;99.90
22167;DHT22;11249;52.468;13.776;2022-11-20T07:02:47;0.00;99.90
22167;DHT22;11249;52.468;13.776;2022-11-20T07:05:20;0.00;99.90
22167;DHT22;11249;52.468;13.776;2022-11-20T07:07:47;0.00;99.90
22167;DHT22;11249;52.468;13.776;2022-11-20T07:10:20;0.00;99.90
22167;DHT22;11249;52.468;13.776;2022-11-20T07:12:53;0.00;99.90
22167;DHT22;11249;52.468;13.776;2022-11-20T07:15:27;0.10;99.90
22167;DHT22;11249;52.468;13.776;2022-11-20T07:17:54;0.20;99.90
22167;DHT22;11249;52.468;13.776;2022-11-20T07:20:27;0.10;99.90
22167;DHT22;11249;52.468;13.776;2022-11-20T07:23:00;0.10;99.90
22167;DHT22;11249;52.468;13.776;2022-11-20T07:25:33;0.10;99.90
22167;DHT22;11249;52.468;13.776;2022-11-20T07:28:01;0.20;99.90
22167;DHT22;11249;52.468;13.776;2022-11-20T07:30:33;0.20;99.90
22167;DHT22;11249;52.468;13.776;2022-11-20T07:33:13;0.20;99.90
22167;DHT22;11249;52.468;13.776;2022-11-20T07:35:46;0.20;99.90
22167;DHT22;11249;52.468;13.776;2022-11-20T07:38:13;0.20;99.90
22167;DHT22;11249;52.468;13.776;2022-11-20T07:40:46;0.30;99.90
22167;DHT22;11249;52.468;13.776;2022-11-20T07:43:13;0.20;99.90
22167;DHT22;11249;52.468;13.776;2022-11-20T07:45:46;0.20;99.90
22167;DHT22;11249;52.468;13.776;2022-11-20T07:48:13;0.20;99.90
22167;DHT22;11249;52.468;13.776;2022-11-20T07:50:46;0.20;99.90
22167;DHT22;11249;52.468;13.776;2022-11-20T07:53:13;0.30;99.90
22167;DHT22;11249;52.468;13.776;2022-11-20T07:55:47;0.20;99.90
22167;DHT22;11249;52.468;13.776;2022-11-20T07:58:13;0.30;99.90
22167;DHT22;11249;52.468;13.776;2022-11-20T08:00:47;0.40;99.90
22167;DHT22;11249;52.468;13.776;2022-11-20T08:03:13;0.40;99.90
22167;DHT22;11249;52.468;13.776;2022-11-20T08:05:50;0.30;99.90
22167;DHT22;11249;52.468;13.776;2022-11-20T08:08:17;0.30;99.90
22167;DHT22;11249;52.468;13.776;2022-11-20T08:10:50;0.30;99.90
22167;DHT22;11249;52.468;13.776;2022-11-20T08:13:17;0.30;99.90
22167;DHT22;11249;52.468;13.776;2022-11-20T08:16:09;0.30;99.90
22167;DHT22;11249;52.468;13.776;2022-11-20T08:18:36;0.40;99.90
22167;DHT22;11249;52.468;13.776;2022-11-20T08:21:09;0.40;99.90
22167;DHT22;11249;52.468;13.776;2022-11-20T08:23:36;0.40;99.90
22167;DHT22;11249;52.468;13.776;2022-11-20T08:26:09;0.40;99.90
22167;DHT22;11249;52.468;13.776;2022-11-20T08:28:36;0.40;99.90
22167;DHT22;11249;52.468;13.776;2022-11-20T08:31:09;0.50;99.90
22167;DHT22;11249;52.468;13.776;2022-11-20T08:33:42;0.50;99.90
22167;DHT22;11249;52.468;13.776;2022-11-20T08:36:16;0.50;99.90
22167;DHT22;11249;52.468;13.776;2022-11-20T08:38:50;0.60;99.90
22167;DHT22;11249;52.468;13.776;2022-11-20T08:41:23;0.50;99.90
22167;DHT22;11249;52.468;13.776;2022-11-20T08:43:51;0.60;99.90
22167;DHT22;11249;52.468;13.776;2022-11-20T08:46:18;0.60;99.90
22167;DHT22;11249;52.468;13.776;2022-11-20T08:48:52;0.60;99.90
22167;DHT22;11249;52.468;13.776;2022-11-20T08:51:20;0.70;99.90
22167;DHT22;11249;52.468;13.776;2022-11-20T08:53:53;0.80;99.90
22167;DHT22;11249;52.468;13.776;2022-11-20T08:56:20;0.80;99.90
22167;DHT22;11249;52.468;13.776;2022-11-20T08:58:53;0.90;99.90
22167;DHT22;11249;52.468;13.776;2022-11-20T09:01:40;0.90;99.90
22167;DHT22;11249;52.468;13.776;2022-11-20T09:04:13;0.90;99.90
22167;DHT22;11249;52.468;13.776;2022-11-20T09:06:40;0.80;99.90
22167;DHT22;11249;52.468;13.776;2022-11-20T09:09:13;0.70;99.90
22167;DHT22;11249;52.468;13.776;2022-11-20T09:11:40;0.70;99.90
22167;DHT22;11249;52.468;13.776;2022-11-20T09:14:13;0.70;99.90
22167;DHT22;11249;52.468;13.776;2022-11-20T09:16:40;0.80;99.90
22167;DHT22;11249;52.468;13.776;2022-11-20T09:19:13;0.70;99.90
22167;DHT22;11249;52.468;13.776;2022-11-20T09:22:03;0.70;99.90
22167;DHT22;11249;52.468;13.776;2022-11-20T09:24:36;0.80;99.90
22167;DHT22;11249;52.468;13.776;2022-11-20T09:27:04;0.80;99.90
22167;DHT22;11249;52.468;13.776;2022-11-20T09:29:37;0.80;99.90
22167;DHT22;11249;52.468;13.776;2022-11-20T09:32:10;0.80;99.90
22167;DHT22;11249;52.468;13.776;2022-11-20T09:34:43;0.80;99.90
22167;DHT22;11249;52.468;13.776;2022-11-20T09:37:10;0.80;99.90
22167;DHT22;11249;52.468;13.776;2022-11-20T09:39:43;0.80;99.90
22167;DHT22;11249;52.468;13.776;2022-11-20T09:42:32;0.80;99.90
22167;DHT22;11249;52.468;13.776;2022-11-20T09:49:18;0.80;99.90
22167;DHT22;11249;52.468;13.776;2022-11-20T09:52:00;0.80;99.90
22167;DHT22;11249;52.468;13.776;2022-11-20T09:54:37;0.80;99.90
22167;DHT22;11249;52.468;13.776;2022-11-20T09:57:13;0.70;99.90
22167;DHT22;11249;52.468;13.776;2022-11-20T10:00:11;0.70;99.90
22167;DHT22;11249;52.468;13.776;2022-11-20T10:03:16;0.60;99.90
22167;DHT22;11249;52.468;13.776;2022-11-20T10:05:54;0.60;99.90
22167;DHT22;11249;52.468;13.776;2022-11-20T10:08:28;0.70;99.90
22167;DHT22;11249;52.468;13.776;2022-11-20T10:11:10;0.70;99.90
22167;DHT22;11249;52.468;13.776;2022-11-20T10:17:18;0.70;99.90
22167;DHT22;11249;52.468;13.776;2022-11-20T10:20:14;0.70;99.90
22167;DHT22;11249;52.468;13.776;2022-11-20T10:23:11;0.70;99.90
22167;DHT22;11249;52.468;13.776;2022-11-20T10:31:38;0.70;99.90
22167;DHT22;11249;52.468;13.776;2022-11-20T10:34:29;0.80;99.90
22167;DHT22;11249;52.468;13.776;2022-11-20T10:37:02;0.80;99.90
22167;DHT22;11249;52.468;13.776;2022-11-20T10:39:59;0.80;99.90
22167;DHT22;11249;52.468;13.776;2022-11-20T10:48:07;0.90;99.90
22167;DHT22;11249;52.468;13.776;2022-11-20T10:53:38;0.80;99.90
22167;DHT22;11249;52.468;13.776;2022-11-20T11:02:29;1.00;99.90
22167;DHT22;11249;52.468;13.776;2022-11-20T11:04:58;1.10;99.90
22167;DHT22;11249;52.468;13.776;2022-11-20T11:07:40;1.10;99.90
22167;DHT22;11249;52.468;13.776;2022-11-20T11:10:32;1.10;99.90
22167;DHT22;11249;52.468;13.776;2022-11-20T11:13:20;1.10;99.90
22167;DHT22;11249;52.468;13.776;2022-11-20T11:15:46;1.10;99.90
22167;DHT22;11249;52.468;13.776;2022-11-20T11:18:31;1.10;99.90
22167;DHT22;11249;52.468;13.776;2022-11-20T11:21:00;0.90;99.90
22167;DHT22;11249;52.468;13.776;2022-11-20T11:23:40;1.00;99.90
22167;DHT22;11249;52.468;13.776;2022-11-20T11:26:22;1.10;99.90
22167;DHT22;11249;52.468;13.776;2022-11-20T11:29:00;1.30;99.90
22167;DHT22;11249;52.468;13.776;2022-11-20T11:31:30;1.60;99.90
22167;DHT22;11249;52.468;13.776;2022-11-20T11:34:22;1.60;99.90
22167;DHT22;11249;52.468;13.776;2022-11-20T11:36:57;1.60;99.90
22167;DHT22;11249;52.468;13.776;2022-11-20T11:39:31;1.70;99.90
22167;DHT22;11249;52.468;13.776;2022-11-20T11:42:00;1.80;99.90
22167;DHT22;11249;52.468;13.776;2022-11-20T11:44:34;1.80;99.90
22167;DHT22;11249;52.468;13.776;2022-11-20T11:47:46;1.90;99.90
22167;DHT22;11249;52.468;13.776;2022-11-20T11:50:26;1.90;99.90
22167;DHT22;11249;52.468;13.776;2022-11-20T12:01:38;1.70;99.90
22167;DHT22;11249;52.468;13.776;2022-11-20T12:04:42;1.70;99.90
22167;DHT22;11249;52.468;13.776;2022-11-20T12:07:22;1.70;99.90
22167;DHT22;11249;52.468;13.776;2022-11-20T12:10:28;1.70;99.90
22167;DHT22;11249;52.468;13.776;2022-11-20T12:15:54;1.60;99.90
22167;DHT22;11249;52.468;13.776;2022-11-20T12:18:28;1.70;99.90
22167;DHT22;11249;52.468;13.776;2022-11-20T12:24:17;1.70;99.90
22167;DHT22;11249;52.468;13.776;2022-11-20T12:27:28;1.60;99.90
22167;DHT22;11249;52.468;13.776;2022-11-20T12:30:09;1.60;99.90
22167;DHT22;11249;52.468;13.776;2022-11-20T12:47:51;1.50;99.90
22167;DHT22;11249;52.468;13.776;2022-11-20T12:53:57;1.50;99.90
22167;DHT22;11249;52.468;13.776;2022-11-20T12:56:39;1.40;99.90
22167;DHT22;11249;52.468;13.776;2022-11-20T13:05:14;1.60;99.90
22167;DHT22;11249;52.468;13.776;2022-11-20T13:07:44;1.60;99.90
22167;DHT22;11249;52.468;13.776;2022-11-20T13:10:41;1.60;99.90
22167;DHT22;11249;52.468;13.776;2022-11-20T13:16:09;1.60;99.90
22167;DHT22;11249;52.468;13.776;2022-11-20T13:18:41;1.60;99.90
22167;DHT22;11249;52.468;13.776;2022-11-20T13:21:19;1.60;99.90
22167;DHT22;11249;52.468;13.776;2022-11-20T13:23:47;1.60;99.90
22167;DHT22;11249;52.468;13.776;2022-11-20T13:26:22;1.60;99.90
22167;DHT22;11249;52.468;13.776;2022-11-20T13:29:19;1.50;99.90
22167;DHT22;11249;52.468;13.776;2022-11-20T13:32:17;1.50;99.90
22167;DHT22;11249;52.468;13.776;2022-11-20T13:35:03;1.40;99.90
22167;DHT22;11249;52.468;13.776;2022-11-20T13:37:44;1.40;99.90
22167;DHT22;11249;52.468;13.776;2022-11-20T13:40:24;1.40;99.90
22167;DHT22;11249;52.468;13.776;2022-11-20T13:43:49;1.40;99.90
22167;DHT22;11249;52.468;13.776;2022-11-20T13:46:03;1.30;99.90
22167;DHT22;11249;52.468;13.776;2022-11-20T13:48:39;1.30;99.90
22167;DHT22;11249;52.468;13.776;2022-11-20T13:57:05;1.10;99.90
22167;DHT22;11249;52.468;13.776;2022-11-20T13:59:46;1.10;99.90
22167;DHT22;11249;52.468;13.776;2022-11-20T14:02:23;1.10;99.90
22167;DHT22;11249;52.468;13.776;2022-11-20T14:04:52;1.10;99.90
22167;DHT22;11249;52.468;13.776;2022-11-20T14:07:31;1.10;99.90
22167;DHT22;11249;52.468;13.776;2022-11-20T14:10:28;1.10;99.90
22167;DHT22;11249;52.468;13.776;2022-11-20T14:13:20;1.10;99.90
22167;DHT22;11249;52.468;13.776;2022-11-20T14:15:47;1.10;99.90
22167;DHT22;11249;52.468;13.776;2022-11-20T14:18:21;1.10;99.90
22167;DHT22;11249;52.468;13.776;2022-11-20T14:20:48;1.10;99.90
22167;DHT22;11249;52.468;13.776;2022-11-20T14:23:28;1.10;99.90
22167;DHT22;11249;52.468;13.776;2022-11-20T14:25:56;1.20;99.90
22167;DHT22;11249;52.468;13.776;2022-11-20T14:28:30;1.20;99.90
22167;DHT22;11249;52.468;13.776;2022-11-20T14:30:58;1.20;99.90
22167;DHT22;11249;52.468;13.776;2022-11-20T14:33:44;1.20;99.90
22167;DHT22;11249;52.468;13.776;2022-11-20T14:36:17;1.10;99.90
22167;DHT22;11249;52.468;13.776;2022-11-20T14:38:52;1.20;99.90
22167;DHT22;11249;52.468;13.776;2022-11-20T14:41:22;1.20;99.90
22167;DHT22;11249;52.468;13.776;2022-11-20T14:43:59;1.20;99.90
22167;DHT22;11249;52.468;13.776;2022-11-20T14:46:27;1.20;99.90
22167;DHT22;11249;52.468;13.776;2022-11-20T14:49:02;1.10;99.90
22167;DHT22;11249;52.468;13.776;2022-11-20T14:51:34;1.10;99.90
22167;DHT22;11249;52.468;13.776;2022-11-20T14:54:14;1.10;99.90
22167;DHT22;11249;52.468;13.776;2022-11-20T14:56:41;1.10;99.90
22167;DHT22;11249;52.468;13.776;2022-11-20T14:59:09;1.10;99.90
22167;DHT22;11249;52.468;13.776;2022-11-20T15:01:55;1.10;99.90
22167;DHT22;11249;52.468;13.776;2022-11-20T15:04:30;1.10;99.90
22167;DHT22;11249;52.468;13.776;2022-11-20T15:06:58;1.10;99.90
22167;DHT22;11249;52.468;13.776;2022-11-20T15:09:25;1.00;99.90
22167;DHT22;11249;52.468;13.776;2022-11-20T15:12:01;1.00;99.90
22167;DHT22;11249;52.468;13.776;2022-11-20T15:14:30;1.00;99.90
22167;DHT22;11249;52.468;13.776;2022-11-20T15:17:03;1.10;99.90
22167;DHT22;11249;52.468;13.776;2022-11-20T15:19:31;1.00;99.90
22167;DHT22;11249;52.468;13.776;2022-11-20T15:22:11;1.00;99.90
22167;DHT22;11249;52.468;13.776;2022-11-20T15:24:39;1.10;99.90
22167;DHT22;11249;52.468;13.776;2022-11-20T15:27:12;1.00;99.90
22167;DHT22;11249;52.468;13.776;2022-11-20T15:29:39;1.00;99.90
22167;DHT22;11249;52.468;13.776;2022-11-20T15:32:13;1.10;99.90
22167;DHT22;11249;52.468;13.776;2022-11-20T15:34:46;1.10;99.90
22167;DHT22;11249;52.468;13.776;2022-11-20T15:37:19;1.10;99.90
22167;DHT22;11249;52.468;13.776;2022-11-20T15:39:51;1.10;99.90
22167;DHT22;11249;52.468;13.776;2022-11-20T15:42:24;1.10;99.90
22167;DHT22;11249;52.468;13.776;2022-11-20T15:44:51;1.10;99.90
22167;DHT22;11249;52.468;13.776;2022-11-20T15:47:28;1.10;99.90
22167;DHT22;11249;52.468;13.776;2022-11-20T15:49:56;1.10;99.90
22167;DHT22;11249;52.468;13.776;2022-11-20T15:52:29;1.10;99.90
22167;DHT22;11249;52.468;13.776;2022-11-20T15:55:10;1.10;99.90
22167;DHT22;11249;52.468;13.776;2022-11-20T15:57:43;1.10;99.90
22167;DHT22;11249;52.468;13.776;2022-11-20T16:00:11;1.20;99.90
22167;DHT22;11249;52.468;13.776;2022-11-20T16:02:49;1.20;99.90
22167;DHT22;11249;52.468;13.776;2022-11-20T16:05:17;1.10;99.90
22167;DHT22;11249;52.468;13.776;2022-11-20T16:07:51;1.10;99.90
22167;DHT22;11249;52.468;13.776;2022-11-20T16:10:18;1.10;99.90
22167;DHT22;11249;52.468;13.776;2022-11-20T16:12:51;1.10;99.90
22167;DHT22;11249;52.468;13.776;2022-11-20T16:15:37;1.10;99.90
22167;DHT22;11249;52.468;13.776;2022-11-20T16:18:21;1.10;99.90
22167;DHT22;11249;52.468;13.776;2022-11-20T16:20:53;1.10;99.90
22167;DHT22;11249;52.468;13.776;2022-11-20T16:23:26;1.10;99.90
22167;DHT22;11249;52.468;13.776;2022-11-20T16:25:53;1.10;99.90
22167;DHT22;11249;52.468;13.776;2022-11-20T16:28:26;1.10;99.90
22167;DHT22;11249;52.468;13.776;2022-11-20T16:31:08;1.10;99.90
22167;DHT22;11249;52.468;13.776;2022-11-20T16:33:50;1.10;99.90
22167;DHT22;11249;52.468;13.776;2022-11-20T16:36:18;1.10;99.90
22167;DHT22;11249;52.468;13.776;2022-11-20T16:38:56;1.10;99.90
22167;DHT22;11249;52.468;13.776;2022-11-20T16:41:31;1.10;99.90
22167;DHT22;11249;52.468;13.776;2022-11-20T16:44:09;1.10;99.90
22167;DHT22;11249;52.468;13.776;2022-11-20T16:46:36;1.10;99.90
22167;DHT22;11249;52.468;13.776;2022-11-20T16:49:13;1.10;99.90
22167;DHT22;11249;52.468;13.776;2022-11-20T16:51:40;1.10;99.90
22167;DHT22;11249;52.468;13.776;2022-11-20T16:54:14;1.00;99.90
22167;DHT22;11249;52.468;13.776;2022-11-20T16:56:46;0.90;99.90
22167;DHT22;11249;52.468;13.776;2022-11-20T16:59:19;0.90;99.90
22167;DHT22;11249;52.468;13.776;2022-11-20T17:01:46;0.80;99.90
22167;DHT22;11249;52.468;13.776;2022-11-20T17:04:13;0.70;99.90
22167;DHT22;11249;52.468;13.776;2022-11-20T17:06:47;0.60;99.90
22167;DHT22;11249;52.468;13.776;2022-11-20T17:09:14;0.60;99.90
22167;DHT22;11249;52.468;13.776;2022-11-20T17:11:47;0.50;99.90
22167;DHT22;11249;52.468;13.776;2022-11-20T17:14:14;0.50;99.90
22167;DHT22;11249;52.468;13.776;2022-11-20T17:16:48;0.50;99.90
22167;DHT22;11249;52.468;13.776;2022-11-20T17:19:15;0.50;99.90
22167;DHT22;11249;52.468;13.776;2022-11-20T17:21:47;0.50;99.90
22167;DHT22;11249;52.468;13.776;2022-11-20T17:24:15;0.60;99.90
22167;DHT22;11249;52.468;13.776;2022-11-20T17:26:51;0.50;99.90
22167;DHT22;11249;52.468;13.776;2022-11-20T17:29:18;0.60;99.90
22167;DHT22;11249;52.468;13.776;2022-11-20T17:32:02;0.60;99.90